Time;durP1;ratioP1;P1;durP2;ratioP2;P2;SDS_P1;SDS_P2;PMS_P1;PMS_P2;Temp;Humidity;BMP_temperature;BMP_pressure;BME280_temperature;BME280_humidity;BME280_pressure;Samples;Min_cycle;Max_cycle;Signal;HPM_P1;HPM_P2
2022/12/28 03:46:11;;;;;;;9.13;2.22;;;12.70;67.60;;;;;;5021097;24;20062;-75
2022/12/28 03:48:38;;;;;;;7.75;2.08;;;13.00;67.10;;;;;;4832820;29;20155;-76
2022/12/28 03:51:04;;;;;;;8.30;2.47;;;13.10;66.60;;;;;;4832178;29;20054;-76
2022/12/28 03:53:39;;;;;;;4.20;1.58;;;13.20;66.50;;;;;;4845690;29;20515;-77
2022/12/28 03:56:17;;;;;;;13.73;3.45;;;13.30;66.60;;;;;;4837527;29;20082;-75
2022/12/28 03:58:43;;;;;;;12.43;2.13;;;13.30;66.60;;;;;;4826915;29;20470;-76
2022/12/28 04:01:09;;;;;;;8.45;2.20;;;13.40;66.60;;;;;;4856833;29;20050;-78
2022/12/28 04:03:34;;;;;;;7.72;1.67;;;13.40;66.60;;;;;;4827020;29;20046;-75
2022/12/28 04:06:00;;;;;;;5.82;2.10;;;13.50;66.50;;;;;;4834451;29;20065;-78
2022/12/28 04:08:27;;;;;;;8.88;1.75;;;13.50;66.50;;;;;;4845325;29;20139;-76
2022/12/28 04:10:52;;;;;;;8.05;1.90;;;13.50;66.60;;;;;;4837853;29;20177;-77
2022/12/28 04:13:18;;;;;;;6.90;1.80;;;13.50;66.60;;;;;;4826473;29;20133;-75
2022/12/28 04:15:54;;;;;;;7.85;1.80;;;13.50;66.60;;;;;;4826278;29;20058;-76
2022/12/28 04:18:20;;;;;;;5.43;1.52;;;13.50;66.60;;;;;;4825834;29;20133;-77
2022/12/28 04:20:45;;;;;;;13.45;2.28;;;13.50;66.70;;;;;;4826858;29;20137;-77
2022/12/28 04:23:11;;;;;;;11.90;2.65;;;13.50;67.00;;;;;;4826904;29;20477;-75
2022/12/28 04:25:37;;;;;;;5.65;1.50;;;13.40;66.90;;;;;;4826643;29;20058;-76
2022/12/28 04:28:03;;;;;;;6.80;1.77;;;13.40;66.90;;;;;;4826264;29;20054;-71
2022/12/28 04:30:31;;;;;;;5.05;1.33;;;13.40;66.90;;;;;;4825918;29;20077;-77
2022/12/28 04:32:57;;;;;;;8.95;1.88;;;13.40;66.80;;;;;;4826293;29;20038;-81
2022/12/28 04:35:22;;;;;;;7.57;1.50;;;13.40;67.00;;;;;;4826068;29;20050;-76
2022/12/28 04:37:48;;;;;;;8.38;2.63;;;13.40;67.10;;;;;;4826064;29;20046;-76
2022/12/28 04:40:14;;;;;;;3.97;1.90;;;13.40;67.00;;;;;;4826030;29;20046;-77
2022/12/28 04:42:39;;;;;;;7.55;2.33;;;13.40;67.00;;;;;;4826015;29;20061;-76
2022/12/28 04:45:06;;;;;;;7.65;2.13;;;13.40;66.90;;;;;;4825911;29;20051;-75
2022/12/28 04:47:31;;;;;;;5.13;1.70;;;13.40;66.80;;;;;;4825942;29;21384;-75
2022/12/28 04:49:57;;;;;;;6.25;2.22;;;13.40;66.70;;;;;;4825639;29;20046;-76
2022/12/28 04:52:23;;;;;;;5.85;2.35;;;13.40;66.60;;;;;;4828756;29;20054;-79
2022/12/28 04:54:48;;;;;;;4.75;2.35;;;13.40;66.70;;;;;;4827100;29;20355;-80
2022/12/28 04:57:14;;;;;;;6.53;2.47;;;13.40;67.10;;;;;;4824607;29;20073;-75
2022/12/28 04:59:40;;;;;;;4.35;1.88;;;13.30;67.40;;;;;;4857995;29;20042;-76
2022/12/28 05:02:06;;;;;;;7.38;1.75;;;13.30;67.30;;;;;;4834052;29;20065;-75
2022/12/28 05:04:32;;;;;;;5.50;2.00;;;13.40;67.30;;;;;;4843657;29;20061;-77
2022/12/28 05:07:00;;;;;;;4.78;1.52;;;13.50;67.30;;;;;;4830742;29;20054;-78
2022/12/28 05:09:25;;;;;;;7.57;1.85;;;13.70;67.20;;;;;;4825355;29;20046;-70
2022/12/28 05:11:51;;;;;;;6.88;2.00;;;13.80;67.40;;;;;;4825732;29;20061;-74
2022/12/28 05:14:17;;;;;;;8.48;1.38;;;14.00;66.50;;;;;;4826043;29;20466;-73
2022/12/28 05:16:43;;;;;;;6.22;1.55;;;14.10;66.30;;;;;;4837436;29;20050;-74
2022/12/28 05:19:08;;;;;;;9.75;2.08;;;14.20;66.20;;;;;;4844469;29;20085;-71
2022/12/28 05:21:34;;;;;;;8.27;1.77;;;14.40;66.30;;;;;;4844186;29;20049;-78
2022/12/28 05:24:00;;;;;;;7.45;1.42;;;14.40;66.40;;;;;;4844086;29;20092;-74
2022/12/28 05:26:28;;;;;;;7.97;1.45;;;14.50;66.80;;;;;;4844121;29;20462;-74
2022/12/28 05:28:54;;;;;;;5.95;1.48;;;14.60;66.70;;;;;;4844510;29;20064;-76
2022/12/28 05:31:21;;;;;;;6.05;1.30;;;14.60;66.80;;;;;;4838195;29;20490;-78
2022/12/28 05:33:47;;;;;;;8.13;2.17;;;14.60;66.80;;;;;;4848204;29;20115;-77
2022/12/28 05:36:25;;;;;;;6.32;1.90;;;14.60;66.40;;;;;;4846759;29;20174;-78
2022/12/28 05:38:53;;;;;;;5.30;1.35;;;14.70;67.40;;;;;;4846852;29;20434;-76
2022/12/28 05:41:28;;;;;;;7.40;1.30;;;14.70;67.40;;;;;;4835276;29;21358;-76
2022/12/28 05:43:55;;;;;;;8.57;1.58;;;14.80;67.60;;;;;;4857294;29;20057;-78
2022/12/28 05:46:30;;;;;;;10.20;1.33;;;14.80;67.30;;;;;;4828654;29;20118;-83
2022/12/28 05:48:59;;;;;;;7.85;1.00;;;15.00;67.40;;;;;;4828786;29;20058;-75
2022/12/28 05:51:27;;;;;;;7.30;1.58;;;15.00;67.10;;;;;;4841392;29;20043;-77
2022/12/28 05:54:29;;;;;;;9.32;1.70;;;15.10;67.10;;;;;;4832613;29;20663;-81
2022/12/28 06:00:16;;;;;;;6.70;1.13;;;15.30;67.00;;;;;;4845810;29;20385;-78
2022/12/28 06:02:42;;;;;;;5.57;1.13;;;15.50;66.80;;;;;;4846552;29;20050;-79
2022/12/28 06:05:07;;;;;;;5.55;0.90;;;15.60;66.70;;;;;;4816011;29;20138;-81
2022/12/28 06:07:33;;;;;;;9.65;2.17;;;15.70;66.50;;;;;;4858786;29;20050;-79
2022/12/28 06:09:59;;;;;;;7.57;1.67;;;15.70;66.60;;;;;;4858069;29;20046;-79
2022/12/28 06:12:24;;;;;;;9.20;1.85;;;15.70;66.60;;;;;;4828605;29;20058;-80
2022/12/28 06:14:53;;;;;;;7.70;1.38;;;15.80;66.60;;;;;;4837410;29;20079;-79
2022/12/28 06:17:19;;;;;;;10.48;1.27;;;15.80;66.90;;;;;;4845258;29;20500;-82
2022/12/28 06:19:45;;;;;;;10.55;1.75;;;15.80;66.20;;;;;;4812483;29;20054;-73
2022/12/28 06:22:10;;;;;;;12.38;1.45;;;15.80;66.00;;;;;;4827720;29;20038;-74
2022/12/28 06:24:36;;;;;;;14.35;1.60;;;15.90;66.10;;;;;;4828418;29;20048;-76
2022/12/28 06:27:02;;;;;;;16.77;2.10;;;15.90;66.20;;;;;;4828527;29;20142;-81
2022/12/28 06:29:27;;;;;;;17.30;2.55;;;15.90;66.20;;;;;;4827869;29;20442;-78
2022/12/28 06:31:55;;;;;;;15.23;2.35;;;15.90;66.10;;;;;;4858117;29;20054;-75
2022/12/28 06:34:20;;;;;;;16.73;2.10;;;15.90;66.30;;;;;;4828437;29;20428;-76
2022/12/28 06:36:49;;;;;;;16.35;2.20;;;16.00;66.20;;;;;;4828508;29;20114;-75
2022/12/28 06:39:15;;;;;;;11.50;2.00;;;15.90;66.20;;;;;;4842025;29;20053;-75
2022/12/28 06:41:41;;;;;;;16.30;1.90;;;16.00;66.20;;;;;;4845818;29;20065;-73
2022/12/28 06:44:08;;;;;;;13.65;2.60;;;16.00;66.20;;;;;;4845804;29;20054;-76
2022/12/28 06:46:35;;;;;;;17.70;2.53;;;16.00;66.10;;;;;;4809801;29;20063;-75
2022/12/28 06:49:01;;;;;;;16.70;2.55;;;16.00;66.60;;;;;;4810147;29;20452;-76
2022/12/28 06:51:34;;;;;;;20.88;2.63;;;16.00;66.60;;;;;;4843707;29;20462;-74
2022/12/28 06:54:00;;;;;;;19.90;1.90;;;16.10;66.60;;;;;;4847274;29;20042;-75
2022/12/28 06:56:31;;;;;;;16.50;2.50;;;16.10;66.40;;;;;;4845897;29;20048;-75
2022/12/28 06:58:57;;;;;;;26.13;2.50;;;16.10;66.30;;;;;;4846243;29;20117;-75
2022/12/28 07:01:26;;;;;;;13.55;1.85;;;16.10;66.20;;;;;;4843002;29;20043;-76
2022/12/28 07:03:54;;;;;;;13.82;2.92;;;15.90;63.60;;;;;;4828141;29;20097;-76
2022/12/28 07:06:22;;;;;;;16.48;1.92;;;15.50;66.60;;;;;;4827759;29;20115;-73
2022/12/28 07:08:51;;;;;;;23.88;3.92;;;15.60;67.00;;;;;;4827959;29;20050;-75
2022/12/28 07:11:21;;;;;;;17.77;2.13;;;15.70;67.00;;;;;;4832827;29;20046;-74
2022/12/28 07:13:47;;;;;;;10.98;1.67;;;15.80;66.70;;;;;;4846070;29;20133;-74
2022/12/28 07:16:15;;;;;;;11.02;2.20;;;15.90;66.40;;;;;;4846176;29;20137;-78
2022/12/28 07:18:42;;;;;;;19.42;1.70;;;16.00;66.20;;;;;;4845347;29;20178;-80
2022/12/28 07:21:10;;;;;;;19.02;2.53;;;16.10;66.20;;;;;;4839080;29;20050;-74
2022/12/28 07:23:36;;;;;;;16.10;2.45;;;16.10;66.00;;;;;;4808568;29;20055;-77
2022/12/28 07:26:11;;;;;;;15.27;2.08;;;16.10;65.90;;;;;;4826110;29;20042;-80
2022/12/28 07:28:41;;;;;;;16.63;2.90;;;16.10;65.70;;;;;;4856577;29;20133;-73
2022/12/28 07:31:09;;;;;;;14.27;2.50;;;16.10;65.60;;;;;;4827032;29;20046;-77
2022/12/28 07:33:36;;;;;;;21.13;2.92;;;16.20;65.50;;;;;;4827460;29;20050;-76
2022/12/28 07:36:07;;;;;;;17.95;3.22;;;16.10;65.40;;;;;;4856477;29;20054;-77
2022/12/28 07:38:33;;;;;;;22.77;3.40;;;16.10;65.60;;;;;;4831500;29;20133;-78
2022/12/28 07:41:19;;;;;;;18.02;2.72;;;16.10;65.70;;;;;;4814551;29;20056;-78
2022/12/28 07:43:45;;;;;;;18.02;2.28;;;16.00;65.70;;;;;;4826706;29;20054;-79
2022/12/28 07:46:22;;;;;;;12.32;2.08;;;16.00;65.80;;;;;;4826837;29;20486;-72
2022/12/28 07:48:49;;;;;;;12.85;1.98;;;15.90;65.80;;;;;;4826724;29;20046;-76
2022/12/28 07:51:17;;;;;;;9.25;1.45;;;15.90;65.90;;;;;;4826603;29;20358;-77
2022/12/28 07:53:45;;;;;;;8.13;1.75;;;15.80;66.20;;;;;;4826517;29;20050;-76
2022/12/28 07:56:12;;;;;;;7.03;1.23;;;15.80;66.10;;;;;;4837863;29;20058;-79
2022/12/28 07:58:38;;;;;;;8.95;1.10;;;15.80;66.00;;;;;;4845077;29;20048;-78
2022/12/28 08:01:09;;;;;;;7.63;1.33;;;15.70;66.10;;;;;;4832251;29;20125;-77
2022/12/28 08:03:36;;;;;;;6.15;1.27;;;15.70;66.20;;;;;;4845281;29;20060;-78
2022/12/28 08:06:09;;;;;;;5.25;1.15;;;15.70;66.20;;;;;;4832706;29;20370;-77
2022/12/28 08:08:36;;;;;;;3.85;0.75;;;15.70;66.30;;;;;;4827600;29;20073;-77
2022/12/28 08:11:04;;;;;;;8.90;0.90;;;15.70;66.30;;;;;;4827162;29;20252;-78
2022/12/28 08:13:32;;;;;;;5.93;0.70;;;15.60;66.30;;;;;;4833767;29;20096;-77
2022/12/28 08:15:58;;;;;;;5.00;0.68;;;15.60;66.30;;;;;;4844313;29;20473;-76
2022/12/28 08:18:25;;;;;;;2.38;0.63;;;15.60;66.30;;;;;;4845251;29;20046;-78
2022/12/28 08:20:51;;;;;;;2.20;0.55;;;15.60;66.30;;;;;;4844932;29;20082;-80
2022/12/28 08:23:16;;;;;;;2.10;0.40;;;15.60;66.30;;;;;;4845088;29;20124;-76
2022/12/28 08:25:42;;;;;;;5.00;0.93;;;15.60;66.20;;;;;;4844964;29;20342;-78
2022/12/28 08:28:08;;;;;;;3.15;0.65;;;15.60;66.40;;;;;;4844735;29;20050;-74
2022/12/28 08:30:34;;;;;;;4.65;0.43;;;15.50;66.50;;;;;;4844273;29;20470;-74
2022/12/28 08:32:59;;;;;;;3.60;0.60;;;15.50;66.60;;;;;;4828866;29;20061;-77
2022/12/28 08:35:25;;;;;;;3.42;0.45;;;15.40;66.40;;;;;;4842797;29;20065;-77
2022/12/28 08:37:54;;;;;;;1.60;0.40;;;15.40;66.60;;;;;;4825907;29;20103;-78
2022/12/28 08:40:21;;;;;;;1.50;0.40;;;15.40;66.60;;;;;;4827274;29;20064;-79
2022/12/28 08:42:47;;;;;;;4.38;0.30;;;15.40;66.60;;;;;;4826430;29;20492;-71
2022/12/28 08:45:12;;;;;;;3.67;0.30;;;15.40;66.60;;;;;;4826782;29;20099;-70
2022/12/28 08:47:38;;;;;;;6.25;0.85;;;15.40;66.50;;;;;;4826241;29;20058;-73
2022/12/28 08:50:04;;;;;;;2.47;0.25;;;15.40;66.40;;;;;;4856029;29;20133;-76
2022/12/28 08:52:30;;;;;;;2.50;0.40;;;15.40;66.30;;;;;;4825769;29;20050;-77
2022/12/28 08:54:56;;;;;;;1.58;0.40;;;15.30;66.90;;;;;;4824289;29;20068;-77
2022/12/28 08:57:22;;;;;;;3.20;0.63;;;15.30;66.40;;;;;;4844244;29;20045;-75
2022/12/28 08:59:47;;;;;;;2.42;0.40;;;15.30;66.60;;;;;;4830214;29;20053;-78
2022/12/28 09:02:13;;;;;;;3.38;0.30;;;15.30;66.70;;;;;;4826266;29;20057;-77
2022/12/28 09:04:39;;;;;;;1.92;0.20;;;15.30;66.70;;;;;;4825437;29;20502;-75
2022/12/28 09:07:05;;;;;;;3.75;0.28;;;15.30;66.50;;;;;;4826585;29;20054;-76
2022/12/28 09:09:33;;;;;;;7.30;0.40;;;15.30;66.50;;;;;;4825582;29;20111;-77
2022/12/28 09:11:59;;;;;;;1.25;0.20;;;15.30;66.60;;;;;;4825640;29;20138;-78
2022/12/28 09:14:25;;;;;;;4.03;0.50;;;15.30;66.70;;;;;;4824917;29;20062;-78
2022/12/28 09:16:52;;;;;;;4.13;0.20;;;15.20;66.60;;;;;;4825873;29;20077;-75
2022/12/28 09:19:18;;;;;;;3.20;0.50;;;15.20;66.70;;;;;;4854892;29;20047;-76
2022/12/28 09:21:47;;;;;;;5.10;0.40;;;15.20;66.90;;;;;;4825682;29;20043;-76
2022/12/28 09:24:13;;;;;;;2.25;0.25;;;15.20;67.00;;;;;;4823361;29;20046;-77
2022/12/28 09:26:39;;;;;;;2.97;0.20;;;15.20;67.10;;;;;;4855269;29;20469;-77
2022/12/28 09:29:07;;;;;;;5.90;0.50;;;15.20;67.10;;;;;;4825083;29;20054;-78
2022/12/28 09:31:38;;;;;;;3.35;0.20;;;15.10;67.20;;;;;;4826944;29;20042;-78
2022/12/28 09:34:06;;;;;;;1.85;0.10;;;15.10;67.10;;;;;;4826250;29;20530;-77
2022/12/28 09:36:34;;;;;;;3.97;0.35;;;15.20;67.30;;;;;;4825200;29;20054;-80
2022/12/28 09:39:06;;;;;;;0.60;0.30;;;15.10;67.20;;;;;;4854955;29;20055;-79
2022/12/28 09:41:47;;;;;;;6.63;1.10;;;15.20;67.20;;;;;;4825391;29;20046;-77
2022/12/28 09:44:15;;;;;;;2.17;0.10;;;15.20;67.10;;;;;;4823033;29;20438;-77
2022/12/28 09:47:05;;;;;;;0.90;0.08;;;15.10;67.00;;;;;;4824950;29;20051;-76
2022/12/28 09:49:41;;;;;;;3.00;0.50;;;15.10;67.20;;;;;;4827251;29;20069;-77
2022/12/28 09:52:13;;;;;;;1.58;0.10;;;15.10;67.20;;;;;;4825029;29;20042;-76
2022/12/28 09:54:39;;;;;;;2.40;0.20;;;15.10;67.10;;;;;;4825147;29;20053;-78
2022/12/28 09:57:13;;;;;;;0.77;0.10;;;15.10;67.10;;;;;;4825315;29;20043;-76
2022/12/28 09:59:39;;;;;;;2.20;0.10;;;15.10;67.20;;;;;;4825125;29;20042;-78
2022/12/28 10:02:18;;;;;;;1.58;0.10;;;15.10;67.20;;;;;;4825218;29;20061;-78
2022/12/28 10:04:47;;;;;;;2.28;0.10;;;15.10;67.10;;;;;;4825052;29;20046;-76
2022/12/28 10:07:13;;;;;;;0.63;0.00;;;15.10;67.20;;;;;;4825103;29;20194;-79
2022/12/28 10:09:39;;;;;;;1.95;0.00;;;15.10;67.10;;;;;;4824588;29;20129;-78
2022/12/28 10:12:31;;;;;;;0.85;0.10;;;15.10;67.00;;;;;;4824938;29;20484;-76
2022/12/28 10:14:58;;;;;;;1.67;0.35;;;15.10;66.90;;;;;;4823098;29;20386;-79
2022/12/28 10:17:29;;;;;;;0.65;0.10;;;15.10;67.00;;;;;;4826157;29;20042;-77
2022/12/28 10:19:57;;;;;;;1.33;0.13;;;15.10;67.00;;;;;;4827587;29;20078;-78
2022/12/28 10:22:25;;;;;;;1.15;0.10;;;15.00;67.10;;;;;;4827987;29;20046;-79
2022/12/28 10:24:52;;;;;;;0.90;0.20;;;15.00;67.10;;;;;;4857729;29;20061;-77
2022/12/28 10:27:29;;;;;;;1.73;0.20;;;15.00;67.20;;;;;;4858030;29;20482;-80
2022/12/28 10:30:01;;;;;;;2.50;0.10;;;14.90;67.20;;;;;;4828082;29;20066;-79
2022/12/28 10:32:37;;;;;;;1.70;0.28;;;14.90;67.30;;;;;;4827988;29;20163;-77
2022/12/28 10:35:03;;;;;;;0.60;0.10;;;14.90;67.30;;;;;;4871867;29;20053;-75
2022/12/28 10:37:35;;;;;;;2.65;0.15;;;14.90;67.30;;;;;;4846165;29;20089;-80
2022/12/28 10:40:07;;;;;;;2.13;0.30;;;14.90;67.40;;;;;;4846816;29;20150;-72
2022/12/28 10:42:42;;;;;;;3.10;0.25;;;14.90;67.60;;;;;;4846754;29;20050;-74
2022/12/28 10:45:33;;;;;;;4.13;0.22;;;14.90;67.70;;;;;;4846690;29;20081;-77
2022/12/28 10:48:00;;;;;;;4.07;0.30;;;14.60;68.00;;;;;;4837308;29;20090;-76
2022/12/28 10:50:54;;;;;;;6.68;0.32;;;14.40;68.70;;;;;;4828131;29;20067;-75
2022/12/28 10:53:40;;;;;;;;;;;14.40;69.50;;;;;;4828771;29;20081;-75
2022/12/28 10:56:39;;;;;;;2.50;0.70;;;14.30;70.20;;;;;;4828815;29;20246;-75
2022/12/28 10:59:11;;;;;;;3.58;0.90;;;14.30;71.40;;;;;;4827495;29;20126;-73
2022/12/28 11:01:37;;;;;;;3.78;0.75;;;14.50;70.90;;;;;;4827600;29;20141;-75
2022/12/28 11:04:17;;;;;;;4.30;0.88;;;14.70;70.50;;;;;;4827256;29;20123;-73
2022/12/28 11:06:53;;;;;;;5.63;1.48;;;14.90;70.40;;;;;;4856894;29;20050;-75
2022/12/28 11:09:26;;;;;;;6.10;1.65;;;15.00;70.20;;;;;;4827785;29;20144;-76
2022/12/28 11:11:55;;;;;;;6.03;1.58;;;15.10;70.10;;;;;;4827799;29;20042;-76
2022/12/28 11:14:41;;;;;;;5.15;1.30;;;15.20;69.80;;;;;;4827728;29;20158;-72
2022/12/28 11:17:22;;;;;;;6.82;1.73;;;15.30;69.70;;;;;;4826055;29;20062;-72
2022/12/28 11:20:02;;;;;;;4.88;1.60;;;15.40;69.50;;;;;;4827168;29;20051;-76
2022/12/28 11:22:29;;;;;;;5.38;1.83;;;15.50;69.60;;;;;;4827622;29;20545;-74
2022/12/28 11:24:58;;;;;;;6.38;1.70;;;15.70;69.50;;;;;;4827736;29;20073;-71
2022/12/28 11:27:24;;;;;;;5.35;2.10;;;15.80;69.10;;;;;;4827262;29;20077;-74
2022/12/28 11:29:52;;;;;;;3.67;1.70;;;16.00;68.80;;;;;;4826440;29;20089;-72
2022/12/28 11:32:27;;;;;;;7.57;1.80;;;16.10;68.50;;;;;;4826186;29;20050;-75
2022/12/28 11:34:55;;;;;;;6.47;2.38;;;16.20;68.60;;;;;;4835695;29;20129;-76
2022/12/28 11:37:21;;;;;;;7.72;1.60;;;16.20;68.80;;;;;;4845281;29;20093;-76
2022/12/28 11:39:48;;;;;;;9.45;2.50;;;16.30;68.70;;;;;;4845109;29;20465;-73
2022/12/28 11:42:35;;;;;;;8.20;2.47;;;16.30;68.60;;;;;;4845130;29;20096;-73
2022/12/28 11:45:11;;;;;;;10.60;3.15;;;16.30;69.00;;;;;;4829470;29;20054;-75
2022/12/28 11:47:36;;;;;;;7.85;2.55;;;16.30;68.90;;;;;;4810233;29;20434;-75
2022/12/28 11:50:33;;;;;;;9.48;2.53;;;16.30;68.90;;;;;;4827111;29;20050;-78
2022/12/28 11:53:00;;;;;;;9.93;2.75;;;16.40;69.00;;;;;;4827176;29;20106;-75
2022/12/28 11:55:59;;;;;;;11.73;2.97;;;16.30;69.30;;;;;;4827209;29;20046;-76
2022/12/28 11:58:39;;;;;;;6.13;2.25;;;16.40;70.40;;;;;;4827110;29;20121;-76
2022/12/28 12:01:11;;;;;;;4.68;1.80;;;16.30;69.90;;;;;;4826864;29;20133;-78
2022/12/28 12:04:03;;;;;;;12.52;1.60;;;16.30;69.60;;;;;;4827010;29;20106;-76
2022/12/28 12:06:40;;;;;;;5.80;1.48;;;16.30;70.00;;;;;;4839902;29;20359;-76
2022/12/28 12:09:22;;;;;;;9.48;1.63;;;16.40;70.70;;;;;;4826933;29;20069;-79
2022/12/28 12:11:53;;;;;;;5.85;1.60;;;16.40;70.70;;;;;;4826833;29;20091;-78
2022/12/28 12:14:41;;;;;;;7.35;1.63;;;16.30;70.90;;;;;;4856382;29;20137;-76
2022/12/28 12:17:16;;;;;;;3.92;1.25;;;16.40;71.10;;;;;;4830670;29;20389;-76
2022/12/28 12:19:49;;;;;;;11.50;2.10;;;16.30;71.10;;;;;;4825741;29;20046;-77
2022/12/28 12:22:20;;;;;;;10.60;1.85;;;16.30;71.10;;;;;;4857084;29;20506;-78
2022/12/28 12:24:59;;;;;;;8.27;1.65;;;16.40;71.20;;;;;;4827095;29;20474;-75
2022/12/28 12:27:40;;;;;;;8.10;1.60;;;16.30;71.20;;;;;;4856261;29;20069;-78
2022/12/28 12:30:13;;;;;;;7.07;1.45;;;16.40;71.30;;;;;;4825725;29;20449;-76
2022/12/28 12:32:55;;;;;;;8.95;1.42;;;16.40;71.20;;;;;;4855709;29;20389;-77
2022/12/28 12:35:27;;;;;;;13.55;2.28;;;16.30;71.10;;;;;;4826734;29;20050;-77
2022/12/28 12:38:04;;;;;;;13.75;2.35;;;16.30;71.10;;;;;;4825790;29;20050;-75
2022/12/28 12:40:44;;;;;;;13.55;2.28;;;16.30;71.00;;;;;;4825577;29;20061;-75
2022/12/28 12:43:33;;;;;;;8.40;1.85;;;16.30;70.90;;;;;;4826472;29;20058;-78
2022/12/28 12:46:18;;;;;;;5.05;0.93;;;16.30;70.50;;;;;;4826048;29;20062;-76
2022/12/28 12:48:46;;;;;;;4.20;1.33;;;16.30;69.90;;;;;;4826909;29;20054;-75
2022/12/28 12:51:20;;;;;;;3.33;0.98;;;16.30;69.40;;;;;;4826206;29;20068;-78
2022/12/28 12:54:17;;;;;;;9.35;1.15;;;16.30;68.70;;;;;;4826414;29;20141;-79
2022/12/28 12:56:55;;;;;;;2.75;0.90;;;16.20;68.00;;;;;;4826532;29;20063;-78
2022/12/28 12:59:39;;;;;;;5.93;0.98;;;16.20;67.30;;;;;;4826758;29;20138;-79
2022/12/28 13:02:25;;;;;;;2.80;0.80;;;16.20;67.30;;;;;;4826157;29;20061;-79
2022/12/28 13:04:51;;;;;;;3.17;0.50;;;16.20;67.20;;;;;;4855839;29;20481;-82
2022/12/28 13:07:27;;;;;;;5.63;0.60;;;16.20;67.30;;;;;;4825569;29;20046;-79
2022/12/28 13:09:58;;;;;;;5.97;1.00;;;16.30;67.40;;;;;;4825958;29;20051;-79
2022/12/28 13:12:24;;;;;;;3.70;1.08;;;16.40;67.20;;;;;;4826131;29;20054;-77
2022/12/28 13:14:58;;;;;;;5.38;0.82;;;16.40;67.40;;;;;;4825706;29;20053;-76
2022/12/28 13:17:25;;;;;;;5.65;1.00;;;16.40;67.60;;;;;;4826009;29;20046;-75
2022/12/28 13:20:06;;;;;;;5.18;0.93;;;16.40;67.80;;;;;;4826211;29;20054;-76
2022/12/28 13:22:32;;;;;;;4.07;1.00;;;16.40;68.30;;;;;;4840225;29;20059;-76
2022/12/28 13:24:58;;;;;;;6.15;0.80;;;16.50;68.30;;;;;;4856165;29;20057;-81
2022/12/28 13:27:32;;;;;;;10.50;0.80;;;16.50;68.40;;;;;;4826232;29;20051;-75
2022/12/28 13:30:00;;;;;;;14.45;0.73;;;16.60;68.40;;;;;;4826294;29;20133;-74
2022/12/28 13:32:29;;;;;;;5.43;1.20;;;16.40;67.90;;;;;;4825241;29;20047;-76
2022/12/28 13:34:55;;;;;;;6.85;1.33;;;16.50;68.80;;;;;;4826446;29;20054;-75
2022/12/28 13:37:21;;;;;;;5.47;0.73;;;16.50;69.60;;;;;;4825581;29;20153;-77
2022/12/28 13:39:48;;;;;;;20.50;3.05;;;16.40;70.70;;;;;;4826054;29;20054;-74
2022/12/28 13:42:18;;;;;;;10.98;1.13;;;16.40;71.20;;;;;;4826589;29;20050;-75
2022/12/28 13:44:53;;;;;;;5.72;0.90;;;16.40;71.80;;;;;;4825988;29;20126;-75
2022/12/28 13:47:24;;;;;;;7.07;1.20;;;16.40;70.90;;;;;;4825886;29;20153;-74
2022/12/28 13:50:09;;;;;;;6.78;1.08;;;16.40;70.00;;;;;;4825037;29;20046;-75
2022/12/28 13:52:39;;;;;;;9.18;1.33;;;16.40;69.50;;;;;;4826243;29;20046;-75
2022/12/28 13:55:19;;;;;;;9.95;1.65;;;16.30;69.50;;;;;;4828778;29;20077;-74
2022/12/28 13:57:49;;;;;;;9.00;1.48;;;16.30;68.90;;;;;;4827612;29;20061;-78
2022/12/28 14:00:20;;;;;;;6.30;1.73;;;16.20;67.50;;;;;;4828241;29;20058;-77
2022/12/28 14:02:48;;;;;;;7.13;1.55;;;16.20;67.20;;;;;;4828514;29;20046;-79
2022/12/28 14:05:17;;;;;;;7.15;0.80;;;16.10;67.50;;;;;;4828476;29;20102;-76
2022/12/28 14:07:43;;;;;;;3.25;1.13;;;16.00;67.50;;;;;;4828165;29;20466;-79
2022/12/28 14:10:10;;;;;;;7.35;1.30;;;15.90;67.10;;;;;;4828175;29;20106;-77
2022/12/28 14:12:37;;;;;;;8.88;1.10;;;15.80;67.10;;;;;;4857991;29;20042;-78
2022/12/28 14:15:03;;;;;;;7.70;1.30;;;15.80;67.30;;;;;;4828552;29;20061;-78
2022/12/28 14:17:30;;;;;;;7.93;1.25;;;15.80;67.60;;;;;;4828245;29;20050;-79
2022/12/28 14:19:57;;;;;;;6.07;0.90;;;15.70;67.90;;;;;;4827903;29;20133;-77
2022/12/28 14:22:32;;;;;;;5.13;0.80;;;15.70;68.20;;;;;;4828265;29;20142;-78
2022/12/28 14:25:18;;;;;;;4.97;1.48;;;15.70;68.60;;;;;;4828054;29;20355;-78
2022/12/28 14:28:01;;;;;;;6.10;0.90;;;15.70;68.70;;;;;;4857915;29;20459;-79
2022/12/28 14:30:39;;;;;;;4.00;1.10;;;15.70;68.90;;;;;;4810359;29;20054;-78
2022/12/28 14:33:17;;;;;;;4.10;1.27;;;15.60;69.00;;;;;;4842940;29;20451;-79
2022/12/28 14:36:00;;;;;;;4.75;1.15;;;15.60;69.10;;;;;;4857461;29;20058;-78
2022/12/28 14:38:44;;;;;;;5.13;0.90;;;15.60;69.30;;;;;;4827350;29;20043;-76
2022/12/28 14:41:36;;;;;;;4.82;1.33;;;15.60;69.40;;;;;;4827886;29;20122;-78
2022/12/28 14:44:11;;;;;;;5.40;1.00;;;15.50;69.50;;;;;;4827624;29;20042;-85
2022/12/28 14:46:39;;;;;;;7.63;1.30;;;15.60;69.40;;;;;;4825384;29;20063;-78
2022/12/28 14:49:27;;;;;;;6.38;1.38;;;15.60;69.40;;;;;;4825994;29;20485;-78
2022/12/28 14:52:15;;;;;;;4.50;0.90;;;15.60;69.20;;;;;;4826254;29;20038;-78
2022/12/28 14:54:50;;;;;;;3.13;1.20;;;15.60;69.20;;;;;;4828197;29;20684;-83
2022/12/28 14:57:28;;;;;;;4.57;0.75;;;15.50;69.70;;;;;;4827810;29;20428;-79
2022/12/28 15:00:04;;;;;;;4.15;0.75;;;15.50;69.10;;;;;;4827847;29;20062;-78
2022/12/28 15:02:37;;;;;;;7.15;0.93;;;15.50;69.10;;;;;;4826918;29;20461;-80
2022/12/28 15:05:03;;;;;;;;;;;15.50;69.20;;;;;;4827648;29;20050;-81
2022/12/28 15:07:32;;;;;;;6.82;1.17;;;15.50;69.10;;;;;;4857433;29;19924;-79
2022/12/28 15:09:57;;;;;;;10.43;1.77;;;15.50;69.30;;;;;;4827333;29;20129;-78
2022/12/28 15:12:23;;;;;;;17.40;2.47;;;15.50;69.20;;;;;;4827087;29;20219;-78
2022/12/28 15:14:49;;;;;;;17.88;2.53;;;15.50;69.00;;;;;;4857666;29;20069;-79
2022/12/28 15:17:16;;;;;;;11.93;1.75;;;15.40;68.90;;;;;;4827514;29;20146;-80
2022/12/28 15:19:43;;;;;;;16.25;1.90;;;15.50;69.00;;;;;;4827387;29;20086;-78
2022/12/28 15:22:10;;;;;;;22.65;2.55;;;15.50;69.10;;;;;;4827081;29;20069;-79
2022/12/28 15:24:35;;;;;;;14.57;1.45;;;15.60;69.00;;;;;;4857158;29;20111;-79
2022/12/28 15:27:02;;;;;;;8.90;1.20;;;15.60;69.10;;;;;;4826915;29;20054;-79
2022/12/28 15:29:28;;;;;;;13.55;1.73;;;15.70;69.10;;;;;;4827175;29;20424;-77
2022/12/28 15:31:54;;;;;;;12.40;2.13;;;15.70;69.10;;;;;;4826989;29;20042;-78
2022/12/28 15:34:19;;;;;;;11.88;1.83;;;15.70;69.00;;;;;;4827047;29;20047;-79
2022/12/28 15:36:48;;;;;;;9.20;1.05;;;15.70;68.80;;;;;;4826302;29;20078;-78
2022/12/28 15:39:14;;;;;;;10.32;2.10;;;15.70;68.80;;;;;;4826974;29;20477;-79
2022/12/28 15:41:47;;;;;;;9.82;1.38;;;15.80;68.70;;;;;;4826865;29;20091;-79
2022/12/28 15:44:18;;;;;;;13.32;1.25;;;15.80;68.60;;;;;;4826466;29;20118;-86
2022/12/28 15:46:45;;;;;;;8.13;1.23;;;15.80;68.40;;;;;;4826921;29;20051;-79
2022/12/28 15:49:13;;;;;;;6.57;1.40;;;15.80;68.60;;;;;;4827357;29;20095;-79
2022/12/28 15:51:56;;;;;;;6.10;1.55;;;15.90;68.90;;;;;;4857020;29;20458;-80
2022/12/28 15:54:22;;;;;;;15.88;1.50;;;16.00;69.10;;;;;;4826180;29;20058;-76
2022/12/28 15:56:52;;;;;;;7.80;1.50;;;16.10;69.10;;;;;;4827313;29;20054;-77
2022/12/28 15:59:18;;;;;;;8.93;1.25;;;16.20;69.10;;;;;;4826050;29;20038;-78
2022/12/28 16:01:44;;;;;;;10.95;1.90;;;16.20;69.00;;;;;;4827383;29;20065;-77
2022/12/28 16:04:13;;;;;;;9.20;1.20;;;16.40;69.00;;;;;;4856910;29;20095;-78
2022/12/28 16:06:39;;;;;;;9.05;1.75;;;16.40;69.00;;;;;;4856143;29;20131;-80
2022/12/28 16:09:06;;;;;;;10.45;1.80;;;16.40;69.10;;;;;;4826645;29;20134;-80
2022/12/28 16:11:33;;;;;;;13.30;1.67;;;16.40;69.00;;;;;;4841096;29;20058;-79
2022/12/28 16:14:04;;;;;;;12.57;1.80;;;16.40;69.10;;;;;;4826641;29;20098;-78
2022/12/28 16:16:34;;;;;;;12.15;2.10;;;16.40;69.20;;;;;;4825486;29;20108;-79
2022/12/28 16:19:01;;;;;;;17.38;2.00;;;16.40;69.60;;;;;;4855405;29;20195;-78
2022/12/28 16:21:28;;;;;;;13.95;2.05;;;16.30;70.60;;;;;;4826883;29;20459;-77
2022/12/28 16:23:57;;;;;;;12.25;1.77;;;16.30;71.40;;;;;;4826197;29;20470;-79
2022/12/28 16:26:23;;;;;;;12.95;2.80;;;16.30;72.00;;;;;;4826628;29;20050;-80
2022/12/28 16:28:49;;;;;;;13.07;2.40;;;16.30;72.00;;;;;;4826535;29;20053;-77
2022/12/28 16:31:33;;;;;;;14.52;1.80;;;16.30;72.00;;;;;;4826684;29;20053;-76
2022/12/28 16:34:13;;;;;;;11.95;1.77;;;16.30;72.10;;;;;;4826825;29;20133;-79
2022/12/28 16:36:39;;;;;;;10.73;1.83;;;16.30;72.00;;;;;;4855192;29;20057;-78
2022/12/28 16:39:08;;;;;;;15.32;2.35;;;16.20;71.80;;;;;;4834562;29;20065;-78
2022/12/28 16:41:35;;;;;;;14.48;2.33;;;16.20;71.90;;;;;;4843373;29;20072;-78
2022/12/28 16:44:05;;;;;;;8.63;1.60;;;16.30;71.90;;;;;;4844230;29;20049;-77
2022/12/28 16:46:31;;;;;;;15.65;1.80;;;16.30;71.80;;;;;;4829412;29;20129;-78
2022/12/28 16:49:00;;;;;;;8.27;1.58;;;16.40;71.70;;;;;;4808549;29;20142;-76
2022/12/28 16:51:26;;;;;;;9.98;1.30;;;16.40;71.60;;;;;;4822228;29;20046;-77